sensor_id;sensor_type;location;lat;lon;timestamp;P1;durP1;ratioP1;P2;durP2;ratioP2
80625;SDS011;69982;51.758;5.784;2023-10-13T00:02:07;12.50;;;6.10;;
80625;SDS011;69982;51.758;5.784;2023-10-13T00:04:34;13.00;;;5.70;;
80625;SDS011;69982;51.758;5.784;2023-10-13T00:07:02;11.50;;;5.40;;
80625;SDS011;69982;51.758;5.784;2023-10-13T00:09:30;11.70;;;5.90;;
80625;SDS011;69982;51.758;5.784;2023-10-13T00:12:05;10.40;;;5.50;;
80625;SDS011;69982;51.758;5.784;2023-10-13T00:14:41;12.60;;;5.00;;
80625;SDS011;69982;51.758;5.784;2023-10-13T00:17:17;12.60;;;6.20;;
80625;SDS011;69982;51.758;5.784;2023-10-13T00:19:47;14.50;;;5.60;;
80625;SDS011;69982;51.758;5.784;2023-10-13T00:22:18;12.50;;;5.70;;
80625;SDS011;69982;51.758;5.784;2023-10-13T00:27:19;10.50;;;4.90;;
80625;SDS011;69982;51.758;5.784;2023-10-13T00:30:01;11.60;;;5.20;;
80625;SDS011;69982;51.758;5.784;2023-10-13T00:32:49;10.00;;;4.70;;
80625;SDS011;69982;51.758;5.784;2023-10-13T00:35:21;11.10;;;5.00;;
80625;SDS011;69982;51.758;5.784;2023-10-13T00:37:58;16.70;;;6.00;;
80625;SDS011;69982;51.758;5.784;2023-10-13T00:40:39;12.20;;;6.00;;
80625;SDS011;69982;51.758;5.784;2023-10-13T00:43:48;12.60;;;6.00;;
80625;SDS011;69982;51.758;5.784;2023-10-13T00:49:26;13.50;;;6.20;;
80625;SDS011;69982;51.758;5.784;2023-10-13T00:51:56;14.20;;;6.30;;
80625;SDS011;69982;51.758;5.784;2023-10-13T00:54:24;12.50;;;5.20;;
80625;SDS011;69982;51.758;5.784;2023-10-13T00:57:02;10.10;;;4.80;;
80625;SDS011;69982;51.758;5.784;2023-10-13T00:59:38;11.30;;;5.30;;
80625;SDS011;69982;51.758;5.784;2023-10-13T01:02:14;15.60;;;5.30;;
80625;SDS011;69982;51.758;5.784;2023-10-13T01:05:06;12.50;;;4.90;;
80625;SDS011;69982;51.758;5.784;2023-10-13T01:07:46;11.10;;;5.30;;
80625;SDS011;69982;51.758;5.784;2023-10-13T01:10:19;14.00;;;4.80;;
80625;SDS011;69982;51.758;5.784;2023-10-13T01:12:46;10.40;;;4.30;;
80625;SDS011;69982;51.758;5.784;2023-10-13T01:15:13;12.10;;;4.90;;
80625;SDS011;69982;51.758;5.784;2023-10-13T01:17:46;12.00;;;4.40;;
80625;SDS011;69982;51.758;5.784;2023-10-13T01:20:13;11.60;;;5.00;;
80625;SDS011;69982;51.758;5.784;2023-10-13T01:22:51;11.70;;;4.40;;
80625;SDS011;69982;51.758;5.784;2023-10-13T01:25:24;13.10;;;5.00;;
80625;SDS011;69982;51.758;5.784;2023-10-13T01:27:54;10.00;;;3.90;;
80625;SDS011;69982;51.758;5.784;2023-10-13T01:30:21;9.70;;;4.30;;
80625;SDS011;69982;51.758;5.784;2023-10-13T01:32:52;10.60;;;5.10;;
80625;SDS011;69982;51.758;5.784;2023-10-13T01:37:52;9.90;;;4.50;;
80625;SDS011;69982;51.758;5.784;2023-10-13T01:40:21;9.90;;;4.60;;
80625;SDS011;69982;51.758;5.784;2023-10-13T01:42:55;11.90;;;5.00;;
80625;SDS011;69982;51.758;5.784;2023-10-13T01:45:22;11.90;;;4.50;;
80625;SDS011;69982;51.758;5.784;2023-10-13T01:47:55;8.00;;;4.40;;
80625;SDS011;69982;51.758;5.784;2023-10-13T01:50:22;9.50;;;4.20;;
80625;SDS011;69982;51.758;5.784;2023-10-13T01:52:56;11.50;;;3.70;;
80625;SDS011;69982;51.758;5.784;2023-10-13T01:55:41;7.60;;;3.90;;
80625;SDS011;69982;51.758;5.784;2023-10-13T01:58:12;10.70;;;4.00;;
80625;SDS011;69982;51.758;5.784;2023-10-13T02:00:45;10.60;;;3.60;;
80625;SDS011;69982;51.758;5.784;2023-10-13T02:03:14;10.30;;;3.90;;
80625;SDS011;69982;51.758;5.784;2023-10-13T02:05:47;10.60;;;3.70;;
80625;SDS011;69982;51.758;5.784;2023-10-13T02:08:21;9.70;;;3.60;;
80625;SDS011;69982;51.758;5.784;2023-10-13T02:10:51;9.00;;;3.70;;
80625;SDS011;69982;51.758;5.784;2023-10-13T02:13:24;9.10;;;3.60;;
80625;SDS011;69982;51.758;5.784;2023-10-13T02:15:56;11.10;;;3.60;;
80625;SDS011;69982;51.758;5.784;2023-10-13T02:18:24;9.70;;;3.30;;
80625;SDS011;69982;51.758;5.784;2023-10-13T02:20:54;11.50;;;3.40;;
80625;SDS011;69982;51.758;5.784;2023-10-13T02:23:22;12.20;;;3.60;;
80625;SDS011;69982;51.758;5.784;2023-10-13T02:25:51;10.50;;;4.00;;
80625;SDS011;69982;51.758;5.784;2023-10-13T02:28:27;10.30;;;4.00;;
80625;SDS011;69982;51.758;5.784;2023-10-13T02:30:57;10.50;;;3.80;;
80625;SDS011;69982;51.758;5.784;2023-10-13T02:33:29;8.60;;;3.40;;
80625;SDS011;69982;51.758;5.784;2023-10-13T02:35:56;10.00;;;3.70;;
80625;SDS011;69982;51.758;5.784;2023-10-13T02:38:24;10.80;;;3.10;;
80625;SDS011;69982;51.758;5.784;2023-10-13T02:41:14;13.00;;;3.40;;
80625;SDS011;69982;51.758;5.784;2023-10-13T02:43:59;9.70;;;3.80;;
80625;SDS011;69982;51.758;5.784;2023-10-13T02:46:27;10.40;;;3.80;;
80625;SDS011;69982;51.758;5.784;2023-10-13T02:48:55;7.20;;;3.40;;
80625;SDS011;69982;51.758;5.784;2023-10-13T02:51:24;8.80;;;3.40;;
80625;SDS011;69982;51.758;5.784;2023-10-13T02:54:02;9.50;;;3.90;;
80625;SDS011;69982;51.758;5.784;2023-10-13T02:56:29;11.90;;;4.00;;
80625;SDS011;69982;51.758;5.784;2023-10-13T02:58:56;11.50;;;4.00;;
80625;SDS011;69982;51.758;5.784;2023-10-13T03:01:34;11.00;;;3.60;;
80625;SDS011;69982;51.758;5.784;2023-10-13T03:04:02;14.20;;;4.70;;
80625;SDS011;69982;51.758;5.784;2023-10-13T03:06:37;8.20;;;4.10;;
80625;SDS011;69982;51.758;5.784;2023-10-13T03:09:09;10.00;;;5.30;;
80625;SDS011;69982;51.758;5.784;2023-10-13T03:11:41;11.00;;;4.50;;
80625;SDS011;69982;51.758;5.784;2023-10-13T03:14:09;10.70;;;5.00;;
80625;SDS011;69982;51.758;5.784;2023-10-13T03:16:53;12.30;;;5.20;;
80625;SDS011;69982;51.758;5.784;2023-10-13T03:19:28;13.50;;;5.40;;
80625;SDS011;69982;51.758;5.784;2023-10-13T03:21:59;13.30;;;6.10;;
80625;SDS011;69982;51.758;5.784;2023-10-13T03:24:37;15.80;;;5.80;;
80625;SDS011;69982;51.758;5.784;2023-10-13T03:27:15;11.20;;;5.80;;
80625;SDS011;69982;51.758;5.784;2023-10-13T03:29:44;12.80;;;5.70;;
80625;SDS011;69982;51.758;5.784;2023-10-13T03:32:13;12.50;;;5.20;;
80625;SDS011;69982;51.758;5.784;2023-10-13T03:34:42;14.90;;;6.40;;
80625;SDS011;69982;51.758;5.784;2023-10-13T03:37:20;12.20;;;5.30;;
80625;SDS011;69982;51.758;5.784;2023-10-13T03:40:07;14.40;;;5.60;;
80625;SDS011;69982;51.758;5.784;2023-10-13T03:42:49;9.50;;;4.90;;
80625;SDS011;69982;51.758;5.784;2023-10-13T03:45:41;11.50;;;5.50;;
80625;SDS011;69982;51.758;5.784;2023-10-13T03:48:15;11.50;;;5.50;;
80625;SDS011;69982;51.758;5.784;2023-10-13T03:50:51;15.40;;;7.00;;
80625;SDS011;69982;51.758;5.784;2023-10-13T03:53:41;16.50;;;6.50;;
80625;SDS011;69982;51.758;5.784;2023-10-13T03:56:32;14.60;;;6.60;;
80625;SDS011;69982;51.758;5.784;2023-10-13T03:59:05;14.10;;;6.90;;
80625;SDS011;69982;51.758;5.784;2023-10-13T04:01:33;12.20;;;5.40;;
80625;SDS011;69982;51.758;5.784;2023-10-13T04:04:15;15.10;;;6.70;;
80625;SDS011;69982;51.758;5.784;2023-10-13T04:07:01;12.60;;;6.60;;
80625;SDS011;69982;51.758;5.784;2023-10-13T04:09:31;12.90;;;6.10;;
80625;SDS011;69982;51.758;5.784;2023-10-13T04:11:58;14.80;;;7.60;;
80625;SDS011;69982;51.758;5.784;2023-10-13T04:14:29;13.00;;;6.80;;
80625;SDS011;69982;51.758;5.784;2023-10-13T04:19:42;15.40;;;7.20;;
80625;SDS011;69982;51.758;5.784;2023-10-13T04:22:27;16.10;;;7.90;;
80625;SDS011;69982;51.758;5.784;2023-10-13T04:25:22;16.40;;;7.80;;
80625;SDS011;69982;51.758;5.784;2023-10-13T04:28:25;16.60;;;8.00;;
80625;SDS011;69982;51.758;5.784;2023-10-13T04:31:03;15.00;;;7.60;;
80625;SDS011;69982;51.758;5.784;2023-10-13T04:33:41;13.40;;;7.30;;
80625;SDS011;69982;51.758;5.784;2023-10-13T04:36:18;17.50;;;8.00;;
80625;SDS011;69982;51.758;5.784;2023-10-13T04:38:55;14.40;;;7.20;;
80625;SDS011;69982;51.758;5.784;2023-10-13T04:41:26;15.90;;;8.10;;
80625;SDS011;69982;51.758;5.784;2023-10-13T04:44:24;13.80;;;6.40;;
80625;SDS011;69982;51.758;5.784;2023-10-13T04:47:09;14.50;;;7.00;;
80625;SDS011;69982;51.758;5.784;2023-10-13T04:49:44;15.30;;;7.60;;
80625;SDS011;69982;51.758;5.784;2023-10-13T04:52:13;16.70;;;7.50;;
80625;SDS011;69982;51.758;5.784;2023-10-13T04:57:21;15.80;;;6.80;;
80625;SDS011;69982;51.758;5.784;2023-10-13T04:59:50;13.10;;;6.20;;
80625;SDS011;69982;51.758;5.784;2023-10-13T05:02:40;14.30;;;6.70;;
80625;SDS011;69982;51.758;5.784;2023-10-13T05:05:21;12.10;;;5.80;;
80625;SDS011;69982;51.758;5.784;2023-10-13T05:08:08;12.20;;;6.20;;
80625;SDS011;69982;51.758;5.784;2023-10-13T05:10:54;10.20;;;5.80;;
80625;SDS011;69982;51.758;5.784;2023-10-13T05:13:39;10.00;;;5.10;;
80625;SDS011;69982;51.758;5.784;2023-10-13T05:16:24;13.60;;;5.80;;
80625;SDS011;69982;51.758;5.784;2023-10-13T05:19:10;8.70;;;5.00;;
80625;SDS011;69982;51.758;5.784;2023-10-13T05:21:55;9.90;;;4.70;;
80625;SDS011;69982;51.758;5.784;2023-10-13T05:24:44;8.80;;;3.90;;
80625;SDS011;69982;51.758;5.784;2023-10-13T05:27:32;9.90;;;4.60;;
80625;SDS011;69982;51.758;5.784;2023-10-13T05:30:17;11.90;;;5.30;;
80625;SDS011;69982;51.758;5.784;2023-10-13T05:33:03;7.60;;;3.60;;
80625;SDS011;69982;51.758;5.784;2023-10-13T05:35:49;9.30;;;4.00;;
80625;SDS011;69982;51.758;5.784;2023-10-13T05:38:55;8.90;;;3.90;;
80625;SDS011;69982;51.758;5.784;2023-10-13T05:41:40;7.60;;;3.90;;
80625;SDS011;69982;51.758;5.784;2023-10-13T05:44:25;8.70;;;3.70;;
80625;SDS011;69982;51.758;5.784;2023-10-13T05:47:04;11.40;;;3.60;;
80625;SDS011;69982;51.758;5.784;2023-10-13T05:50:06;6.80;;;3.60;;
80625;SDS011;69982;51.758;5.784;2023-10-13T05:52:55;6.80;;;3.50;;
80625;SDS011;69982;51.758;5.784;2023-10-13T05:55:22;7.80;;;3.30;;
80625;SDS011;69982;51.758;5.784;2023-10-13T05:58:16;8.30;;;3.60;;
80625;SDS011;69982;51.758;5.784;2023-10-13T06:01:01;8.60;;;3.40;;
80625;SDS011;69982;51.758;5.784;2023-10-13T06:03:47;8.20;;;4.10;;
80625;SDS011;69982;51.758;5.784;2023-10-13T06:06:33;7.40;;;3.10;;
80625;SDS011;69982;51.758;5.784;2023-10-13T06:09:31;8.90;;;2.90;;
80625;SDS011;69982;51.758;5.784;2023-10-13T06:12:17;5.90;;;2.60;;
80625;SDS011;69982;51.758;5.784;2023-10-13T06:15:21;7.40;;;3.00;;
80625;SDS011;69982;51.758;5.784;2023-10-13T06:18:09;8.80;;;3.30;;
80625;SDS011;69982;51.758;5.784;2023-10-13T06:20:57;6.70;;;2.90;;
80625;SDS011;69982;51.758;5.784;2023-10-13T06:23:42;7.10;;;2.70;;
80625;SDS011;69982;51.758;5.784;2023-10-13T06:26:32;4.90;;;2.40;;
80625;SDS011;69982;51.758;5.784;2023-10-13T06:29:25;6.50;;;3.00;;
80625;SDS011;69982;51.758;5.784;2023-10-13T06:31:53;6.70;;;2.80;;
80625;SDS011;69982;51.758;5.784;2023-10-13T06:34:24;9.50;;;2.50;;
80625;SDS011;69982;51.758;5.784;2023-10-13T06:37:04;7.80;;;3.20;;
80625;SDS011;69982;51.758;5.784;2023-10-13T06:39:53;7.70;;;3.10;;
80625;SDS011;69982;51.758;5.784;2023-10-13T06:42:26;7.50;;;3.00;;
80625;SDS011;69982;51.758;5.784;2023-10-13T06:44:55;7.80;;;3.00;;
80625;SDS011;69982;51.758;5.784;2023-10-13T06:47:22;7.00;;;2.70;;
80625;SDS011;69982;51.758;5.784;2023-10-13T06:49:50;8.40;;;3.20;;
80625;SDS011;69982;51.758;5.784;2023-10-13T06:52:18;8.80;;;3.20;;
80625;SDS011;69982;51.758;5.784;2023-10-13T06:54:44;9.90;;;3.80;;
80625;SDS011;69982;51.758;5.784;2023-10-13T06:57:13;7.20;;;3.30;;
80625;SDS011;69982;51.758;5.784;2023-10-13T06:59:41;9.30;;;3.10;;
80625;SDS011;69982;51.758;5.784;2023-10-13T07:02:09;12.60;;;3.40;;
80625;SDS011;69982;51.758;5.784;2023-10-13T07:04:51;7.40;;;2.70;;
80625;SDS011;69982;51.758;5.784;2023-10-13T07:07:33;7.00;;;2.80;;
80625;SDS011;69982;51.758;5.784;2023-10-13T07:10:02;11.30;;;3.30;;
80625;SDS011;69982;51.758;5.784;2023-10-13T07:12:28;9.30;;;3.60;;
80625;SDS011;69982;51.758;5.784;2023-10-13T07:14:59;7.80;;;2.80;;
80625;SDS011;69982;51.758;5.784;2023-10-13T07:17:37;9.70;;;3.00;;
80625;SDS011;69982;51.758;5.784;2023-10-13T07:20:07;11.20;;;3.10;;
80625;SDS011;69982;51.758;5.784;2023-10-13T07:23:03;14.20;;;3.50;;
80625;SDS011;69982;51.758;5.784;2023-10-13T07:25:30;8.50;;;3.10;;
80625;SDS011;69982;51.758;5.784;2023-10-13T07:27:59;10.90;;;3.20;;
80625;SDS011;69982;51.758;5.784;2023-10-13T07:30:27;10.70;;;3.00;;
80625;SDS011;69982;51.758;5.784;2023-10-13T07:32:54;10.20;;;2.90;;
80625;SDS011;69982;51.758;5.784;2023-10-13T07:35:25;11.60;;;3.10;;
80625;SDS011;69982;51.758;5.784;2023-10-13T07:37:52;10.30;;;3.30;;
80625;SDS011;69982;51.758;5.784;2023-10-13T07:40:22;11.70;;;3.60;;
80625;SDS011;69982;51.758;5.784;2023-10-13T07:42:52;10.70;;;3.10;;
80625;SDS011;69982;51.758;5.784;2023-10-13T07:45:27;10.60;;;2.90;;
80625;SDS011;69982;51.758;5.784;2023-10-13T07:48:07;9.90;;;3.10;;
80625;SDS011;69982;51.758;5.784;2023-10-13T07:50:48;10.10;;;3.10;;
80625;SDS011;69982;51.758;5.784;2023-10-13T07:53:31;12.30;;;3.50;;
80625;SDS011;69982;51.758;5.784;2023-10-13T07:56:02;11.70;;;3.20;;
80625;SDS011;69982;51.758;5.784;2023-10-13T07:58:31;11.30;;;3.10;;
80625;SDS011;69982;51.758;5.784;2023-10-13T08:00:58;11.70;;;3.30;;
80625;SDS011;69982;51.758;5.784;2023-10-13T08:03:36;10.40;;;3.30;;
80625;SDS011;69982;51.758;5.784;2023-10-13T08:06:12;9.40;;;2.90;;
80625;SDS011;69982;51.758;5.784;2023-10-13T08:08:45;12.70;;;2.90;;
80625;SDS011;69982;51.758;5.784;2023-10-13T08:11:16;13.50;;;2.90;;
80625;SDS011;69982;51.758;5.784;2023-10-13T08:13:54;10.10;;;3.00;;
80625;SDS011;69982;51.758;5.784;2023-10-13T08:16:29;11.00;;;3.10;;
80625;SDS011;69982;51.758;5.784;2023-10-13T08:19:15;11.40;;;3.30;;
80625;SDS011;69982;51.758;5.784;2023-10-13T08:21:43;12.90;;;2.80;;
80625;SDS011;69982;51.758;5.784;2023-10-13T08:24:23;14.50;;;4.00;;
80625;SDS011;69982;51.758;5.784;2023-10-13T08:27:14;10.90;;;3.20;;
80625;SDS011;69982;51.758;5.784;2023-10-13T08:30:08;15.80;;;3.90;;
80625;SDS011;69982;51.758;5.784;2023-10-13T08:32:54;13.60;;;3.50;;
80625;SDS011;69982;51.758;5.784;2023-10-13T08:35:23;13.50;;;3.10;;
80625;SDS011;69982;51.758;5.784;2023-10-13T08:38:05;14.60;;;3.10;;
80625;SDS011;69982;51.758;5.784;2023-10-13T08:40:44;11.30;;;2.90;;
80625;SDS011;69982;51.758;5.784;2023-10-13T08:43:38;13.80;;;3.70;;
80625;SDS011;69982;51.758;5.784;2023-10-13T08:46:17;10.80;;;3.60;;
80625;SDS011;69982;51.758;5.784;2023-10-13T08:48:58;12.50;;;4.10;;
80625;SDS011;69982;51.758;5.784;2023-10-13T08:51:46;14.90;;;3.70;;
80625;SDS011;69982;51.758;5.784;2023-10-13T08:54:15;14.80;;;4.10;;
80625;SDS011;69982;51.758;5.784;2023-10-13T08:56:51;11.40;;;3.20;;
80625;SDS011;69982;51.758;5.784;2023-10-13T08:59:29;15.30;;;3.40;;
80625;SDS011;69982;51.758;5.784;2023-10-13T09:02:11;11.70;;;3.30;;
80625;SDS011;69982;51.758;5.784;2023-10-13T09:04:44;14.20;;;4.10;;
80625;SDS011;69982;51.758;5.784;2023-10-13T09:07:12;13.10;;;2.90;;
80625;SDS011;69982;51.758;5.784;2023-10-13T09:12:25;9.10;;;2.90;;
80625;SDS011;69982;51.758;5.784;2023-10-13T09:14:59;12.90;;;3.70;;
80625;SDS011;69982;51.758;5.784;2023-10-13T09:17:41;14.00;;;3.90;;
80625;SDS011;69982;51.758;5.784;2023-10-13T09:20:28;12.10;;;3.90;;
80625;SDS011;69982;51.758;5.784;2023-10-13T09:23:17;15.80;;;3.60;;
80625;SDS011;69982;51.758;5.784;2023-10-13T09:26:10;9.80;;;3.00;;
80625;SDS011;69982;51.758;5.784;2023-10-13T09:28:38;14.10;;;3.10;;
80625;SDS011;69982;51.758;5.784;2023-10-13T09:31:05;12.10;;;4.30;;
80625;SDS011;69982;51.758;5.784;2023-10-13T09:33:33;16.90;;;3.60;;
80625;SDS011;69982;51.758;5.784;2023-10-13T09:36:03;10.60;;;3.40;;
80625;SDS011;69982;51.758;5.784;2023-10-13T09:38:34;12.50;;;3.40;;
80625;SDS011;69982;51.758;5.784;2023-10-13T09:41:22;17.30;;;4.30;;
80625;SDS011;69982;51.758;5.784;2023-10-13T09:44:08;12.70;;;3.80;;
80625;SDS011;69982;51.758;5.784;2023-10-13T09:46:44;13.60;;;3.40;;
80625;SDS011;69982;51.758;5.784;2023-10-13T09:49:19;12.50;;;3.50;;
80625;SDS011;69982;51.758;5.784;2023-10-13T09:52:12;12.70;;;3.10;;
80625;SDS011;69982;51.758;5.784;2023-10-13T09:54:58;8.50;;;3.00;;
80625;SDS011;69982;51.758;5.784;2023-10-13T09:57:41;13.00;;;3.30;;
80625;SDS011;69982;51.758;5.784;2023-10-13T10:00:19;11.40;;;4.50;;
80625;SDS011;69982;51.758;5.784;2023-10-13T10:03:13;17.40;;;4.30;;
80625;SDS011;69982;51.758;5.784;2023-10-13T10:06:06;13.10;;;3.60;;
80625;SDS011;69982;51.758;5.784;2023-10-13T10:08:34;16.70;;;4.20;;
80625;SDS011;69982;51.758;5.784;2023-10-13T10:11:16;16.40;;;4.00;;
80625;SDS011;69982;51.758;5.784;2023-10-13T10:13:50;14.10;;;3.60;;
80625;SDS011;69982;51.758;5.784;2023-10-13T10:16:29;10.80;;;3.50;;
80625;SDS011;69982;51.758;5.784;2023-10-13T10:19:17;11.90;;;4.30;;
80625;SDS011;69982;51.758;5.784;2023-10-13T10:21:45;9.50;;;3.70;;
80625;SDS011;69982;51.758;5.784;2023-10-13T10:24:43;11.60;;;4.30;;
80625;SDS011;69982;51.758;5.784;2023-10-13T10:27:27;11.40;;;3.60;;
80625;SDS011;69982;51.758;5.784;2023-10-13T10:30:03;13.60;;;3.80;;
80625;SDS011;69982;51.758;5.784;2023-10-13T10:32:36;14.90;;;4.30;;
80625;SDS011;69982;51.758;5.784;2023-10-13T10:35:10;16.70;;;4.00;;
80625;SDS011;69982;51.758;5.784;2023-10-13T10:37:42;17.20;;;4.20;;
80625;SDS011;69982;51.758;5.784;2023-10-13T10:40:17;12.10;;;3.80;;
80625;SDS011;69982;51.758;5.784;2023-10-13T10:43:13;13.30;;;3.80;;
80625;SDS011;69982;51.758;5.784;2023-10-13T10:45:52;12.40;;;4.20;;
80625;SDS011;69982;51.758;5.784;2023-10-13T10:48:42;17.90;;;4.50;;
80625;SDS011;69982;51.758;5.784;2023-10-13T10:51:14;10.40;;;3.20;;
80625;SDS011;69982;51.758;5.784;2023-10-13T10:54:02;15.00;;;4.40;;
80625;SDS011;69982;51.758;5.784;2023-10-13T10:56:49;12.90;;;4.30;;
80625;SDS011;69982;51.758;5.784;2023-10-13T10:59:33;11.40;;;4.20;;
80625;SDS011;69982;51.758;5.784;2023-10-13T11:02:04;11.50;;;3.90;;
80625;SDS011;69982;51.758;5.784;2023-10-13T11:04:36;12.80;;;4.30;;
80625;SDS011;69982;51.758;5.784;2023-10-13T11:07:24;10.90;;;3.90;;
80625;SDS011;69982;51.758;5.784;2023-10-13T11:10:16;16.50;;;4.30;;
80625;SDS011;69982;51.758;5.784;2023-10-13T11:12:56;13.00;;;3.70;;
80625;SDS011;69982;51.758;5.784;2023-10-13T11:15:52;15.80;;;4.40;;
80625;SDS011;69982;51.758;5.784;2023-10-13T11:18:30;17.40;;;4.20;;
80625;SDS011;69982;51.758;5.784;2023-10-13T11:21:06;10.10;;;3.70;;
80625;SDS011;69982;51.758;5.784;2023-10-13T11:23:38;14.50;;;3.70;;
80625;SDS011;69982;51.758;5.784;2023-10-13T11:26:08;15.00;;;3.70;;
80625;SDS011;69982;51.758;5.784;2023-10-13T11:28:36;12.40;;;3.90;;
80625;SDS011;69982;51.758;5.784;2023-10-13T11:31:04;11.70;;;3.80;;
80625;SDS011;69982;51.758;5.784;2023-10-13T11:33:42;16.30;;;4.00;;
80625;SDS011;69982;51.758;5.784;2023-10-13T11:36:13;16.50;;;4.40;;
80625;SDS011;69982;51.758;5.784;2023-10-13T11:38:53;12.60;;;3.80;;
80625;SDS011;69982;51.758;5.784;2023-10-13T11:41:24;19.30;;;4.30;;
80625;SDS011;69982;51.758;5.784;2023-10-13T11:43:59;14.70;;;4.30;;
80625;SDS011;69982;51.758;5.784;2023-10-13T11:46:40;13.20;;;3.80;;
80625;SDS011;69982;51.758;5.784;2023-10-13T11:49:24;19.60;;;4.10;;
80625;SDS011;69982;51.758;5.784;2023-10-13T11:51:53;10.40;;;4.10;;
80625;SDS011;69982;51.758;5.784;2023-10-13T11:54:36;13.80;;;4.10;;
80625;SDS011;69982;51.758;5.784;2023-10-13T11:57:08;16.90;;;6.10;;
80625;SDS011;69982;51.758;5.784;2023-10-13T11:59:35;16.40;;;5.30;;
80625;SDS011;69982;51.758;5.784;2023-10-13T12:02:11;14.60;;;4.30;;
80625;SDS011;69982;51.758;5.784;2023-10-13T12:04:53;12.30;;;3.90;;
80625;SDS011;69982;51.758;5.784;2023-10-13T12:07:25;19.70;;;4.40;;
80625;SDS011;69982;51.758;5.784;2023-10-13T12:10:11;16.40;;;4.70;;
80625;SDS011;69982;51.758;5.784;2023-10-13T12:13:01;16.00;;;4.10;;
80625;SDS011;69982;51.758;5.784;2023-10-13T12:15:33;16.20;;;4.80;;
80625;SDS011;69982;51.758;5.784;2023-10-13T12:20:47;13.50;;;4.30;;
80625;SDS011;69982;51.758;5.784;2023-10-13T12:23:17;19.00;;;4.90;;
80625;SDS011;69982;51.758;5.784;2023-10-13T12:25:45;18.90;;;4.60;;
80625;SDS011;69982;51.758;5.784;2023-10-13T12:28:37;16.70;;;4.90;;
80625;SDS011;69982;51.758;5.784;2023-10-13T12:31:07;22.30;;;5.00;;
80625;SDS011;69982;51.758;5.784;2023-10-13T12:33:39;15.90;;;4.60;;
80625;SDS011;69982;51.758;5.784;2023-10-13T12:36:09;20.40;;;5.00;;
80625;SDS011;69982;51.758;5.784;2023-10-13T12:38:41;15.70;;;4.40;;
80625;SDS011;69982;51.758;5.784;2023-10-13T12:41:15;16.00;;;5.40;;
80625;SDS011;69982;51.758;5.784;2023-10-13T12:44:02;23.20;;;4.90;;
80625;SDS011;69982;51.758;5.784;2023-10-13T12:46:49;20.80;;;5.70;;
80625;SDS011;69982;51.758;5.784;2023-10-13T12:52:09;12.00;;;4.80;;
80625;SDS011;69982;51.758;5.784;2023-10-13T12:54:54;13.30;;;4.30;;
80625;SDS011;69982;51.758;5.784;2023-10-13T12:57:24;16.80;;;5.00;;
80625;SDS011;69982;51.758;5.784;2023-10-13T12:59:52;16.00;;;4.80;;
80625;SDS011;69982;51.758;5.784;2023-10-13T13:02:23;19.80;;;4.40;;
80625;SDS011;69982;51.758;5.784;2023-10-13T13:04:54;15.60;;;4.60;;
80625;SDS011;69982;51.758;5.784;2023-10-13T13:07:32;16.10;;;4.50;;
80625;SDS011;69982;51.758;5.784;2023-10-13T13:10:10;12.80;;;4.30;;
80625;SDS011;69982;51.758;5.784;2023-10-13T13:12:38;12.00;;;4.70;;
80625;SDS011;69982;51.758;5.784;2023-10-13T13:15:05;15.90;;;4.50;;
80625;SDS011;69982;51.758;5.784;2023-10-13T13:17:36;16.20;;;3.50;;
80625;SDS011;69982;51.758;5.784;2023-10-13T13:20:08;16.10;;;4.60;;
80625;SDS011;69982;51.758;5.784;2023-10-13T13:22:53;15.50;;;3.40;;
80625;SDS011;69982;51.758;5.784;2023-10-13T13:25:21;19.10;;;4.30;;
80625;SDS011;69982;51.758;5.784;2023-10-13T13:27:56;15.30;;;4.30;;
80625;SDS011;69982;51.758;5.784;2023-10-13T13:30:30;16.20;;;3.90;;
80625;SDS011;69982;51.758;5.784;2023-10-13T13:33:04;13.70;;;4.00;;
80625;SDS011;69982;51.758;5.784;2023-10-13T13:35:42;13.90;;;3.90;;
80625;SDS011;69982;51.758;5.784;2023-10-13T13:38:10;15.90;;;4.00;;
80625;SDS011;69982;51.758;5.784;2023-10-13T13:40:59;14.70;;;4.20;;
80625;SDS011;69982;51.758;5.784;2023-10-13T13:43:28;12.20;;;4.00;;
80625;SDS011;69982;51.758;5.784;2023-10-13T13:46:07;10.60;;;3.10;;
80625;SDS011;69982;51.758;5.784;2023-10-13T13:48:38;17.90;;;3.50;;
80625;SDS011;69982;51.758;5.784;2023-10-13T13:51:20;12.40;;;3.50;;
80625;SDS011;69982;51.758;5.784;2023-10-13T13:53:54;16.40;;;3.80;;
80625;SDS011;69982;51.758;5.784;2023-10-13T13:56:22;14.90;;;3.50;;
80625;SDS011;69982;51.758;5.784;2023-10-13T13:58:53;14.10;;;3.50;;
80625;SDS011;69982;51.758;5.784;2023-10-13T14:01:25;13.50;;;2.80;;
80625;SDS011;69982;51.758;5.784;2023-10-13T14:03:56;17.20;;;3.70;;
80625;SDS011;69982;51.758;5.784;2023-10-13T14:06:29;13.40;;;4.00;;
80625;SDS011;69982;51.758;5.784;2023-10-13T14:08:56;13.50;;;3.10;;
80625;SDS011;69982;51.758;5.784;2023-10-13T14:11:26;12.90;;;3.40;;
80625;SDS011;69982;51.758;5.784;2023-10-13T14:14:06;9.50;;;2.90;;
80625;SDS011;69982;51.758;5.784;2023-10-13T14:16:38;15.70;;;3.80;;
80625;SDS011;69982;51.758;5.784;2023-10-13T14:19:11;10.20;;;2.60;;
80625;SDS011;69982;51.758;5.784;2023-10-13T14:21:41;14.50;;;3.50;;
80625;SDS011;69982;51.758;5.784;2023-10-13T14:24:14;11.00;;;2.90;;
80625;SDS011;69982;51.758;5.784;2023-10-13T14:26:45;18.30;;;4.10;;
80625;SDS011;69982;51.758;5.784;2023-10-13T14:29:11;12.70;;;3.70;;
80625;SDS011;69982;51.758;5.784;2023-10-13T14:31:40;14.20;;;3.70;;
80625;SDS011;69982;51.758;5.784;2023-10-13T14:34:08;11.10;;;3.10;;
80625;SDS011;69982;51.758;5.784;2023-10-13T14:36:38;11.20;;;2.80;;
80625;SDS011;69982;51.758;5.784;2023-10-13T14:39:05;16.20;;;2.60;;
80625;SDS011;69982;51.758;5.784;2023-10-13T14:41:38;11.90;;;3.10;;
80625;SDS011;69982;51.758;5.784;2023-10-13T14:44:05;14.60;;;3.30;;
80625;SDS011;69982;51.758;5.784;2023-10-13T14:46:34;13.60;;;3.70;;
80625;SDS011;69982;51.758;5.784;2023-10-13T14:49:07;12.30;;;3.10;;
80625;SDS011;69982;51.758;5.784;2023-10-13T14:51:36;16.90;;;3.50;;
80625;SDS011;69982;51.758;5.784;2023-10-13T14:54:05;16.10;;;3.20;;
80625;SDS011;69982;51.758;5.784;2023-10-13T14:56:32;13.40;;;3.90;;
80625;SDS011;69982;51.758;5.784;2023-10-13T14:58:59;13.20;;;3.10;;
80625;SDS011;69982;51.758;5.784;2023-10-13T15:01:26;13.80;;;3.80;;
80625;SDS011;69982;51.758;5.784;2023-10-13T15:06:25;13.30;;;2.50;;
80625;SDS011;69982;51.758;5.784;2023-10-13T15:08:57;12.50;;;4.10;;
80625;SDS011;69982;51.758;5.784;2023-10-13T15:11:25;13.50;;;3.10;;
80625;SDS011;69982;51.758;5.784;2023-10-13T15:13:53;12.20;;;2.90;;
80625;SDS011;69982;51.758;5.784;2023-10-13T15:16:23;12.60;;;3.50;;
80625;SDS011;69982;51.758;5.784;2023-10-13T15:18:51;12.30;;;3.40;;
80625;SDS011;69982;51.758;5.784;2023-10-13T15:21:22;14.30;;;3.50;;
80625;SDS011;69982;51.758;5.784;2023-10-13T15:23:53;12.90;;;3.80;;
80625;SDS011;69982;51.758;5.784;2023-10-13T15:26:30;16.80;;;3.40;;
80625;SDS011;69982;51.758;5.784;2023-10-13T15:28:57;14.30;;;3.80;;
80625;SDS011;69982;51.758;5.784;2023-10-13T15:31:26;15.80;;;3.80;;
80625;SDS011;69982;51.758;5.784;2023-10-13T15:34:00;17.00;;;4.20;;
80625;SDS011;69982;51.758;5.784;2023-10-13T15:36:42;9.00;;;3.10;;
80625;SDS011;69982;51.758;5.784;2023-10-13T15:39:10;11.60;;;3.60;;
80625;SDS011;69982;51.758;5.784;2023-10-13T15:41:39;16.40;;;3.80;;
80625;SDS011;69982;51.758;5.784;2023-10-13T15:44:05;14.30;;;4.10;;
80625;SDS011;69982;51.758;5.784;2023-10-13T15:46:36;14.70;;;4.20;;
80625;SDS011;69982;51.758;5.784;2023-10-13T15:49:23;16.70;;;3.60;;
80625;SDS011;69982;51.758;5.784;2023-10-13T15:51:50;13.30;;;3.50;;
80625;SDS011;69982;51.758;5.784;2023-10-13T15:54:23;15.10;;;4.00;;